createdAt,value
2022-12-25T00:04:23.061Z,7.86
2022-12-25T00:09:24.924Z,7.82
2022-12-25T00:14:26.786Z,7.78
2022-12-25T00:19:32.176Z,7.76
2022-12-25T00:24:34.040Z,7.72
2022-12-25T00:29:36.043Z,7.66
2022-12-25T00:34:37.882Z,7.55
2022-12-25T00:39:40.238Z,7.47
2022-12-25T00:44:42.137Z,7.40
2022-12-25T00:49:44.287Z,7.33
2022-12-25T00:54:46.120Z,7.22
2022-12-25T00:59:47.879Z,7.13
2022-12-25T01:04:51.032Z,7.07
2022-12-25T01:10:11.294Z,7.00
2022-12-25T01:15:13.847Z,6.94
2022-12-25T01:20:17.169Z,6.89
2022-12-25T01:25:19.133Z,6.85
2022-12-25T01:30:20.891Z,6.78
2022-12-25T01:35:22.787Z,6.72
2022-12-25T01:40:24.688Z,6.66
2022-12-25T01:45:52.909Z,6.63
2022-12-25T01:50:59.379Z,6.61
2022-12-25T01:56:06.517Z,6.62
2022-12-25T02:01:08.890Z,6.63
2022-12-25T02:06:10.692Z,6.64
2022-12-25T02:11:32.515Z,6.64
2022-12-25T02:16:56.828Z,6.61
2022-12-25T02:22:25.320Z,6.58
2022-12-25T02:27:56.129Z,6.54
2022-12-25T02:33:20.768Z,6.49
2022-12-25T02:38:36.375Z,6.44
2022-12-25T02:44:02.441Z,6.38
2022-12-25T02:49:28.258Z,6.33
2022-12-25T02:54:57.126Z,6.28
2022-12-25T03:00:20.314Z,6.22
2022-12-25T03:05:44.235Z,6.18
2022-12-25T03:11:12.123Z,6.15
2022-12-25T03:16:32.518Z,6.16
2022-12-25T03:21:53.080Z,6.15
2022-12-25T03:26:56.998Z,6.15
2022-12-25T03:32:13.528Z,6.13
2022-12-25T03:37:44.873Z,6.10
2022-12-25T03:43:13.614Z,6.09
2022-12-25T03:48:35.395Z,6.12
2022-12-25T03:54:09.995Z,6.16
2022-12-25T03:59:30.333Z,6.12
2022-12-25T04:04:50.578Z,6.10
2022-12-25T04:10:27.824Z,6.12
2022-12-25T04:15:48.320Z,6.12
2022-12-25T04:21:08.689Z,6.11
2022-12-25T04:26:28.890Z,6.10
2022-12-25T04:31:49.293Z,6.05
2022-12-25T04:36:51.058Z,5.99
2022-12-25T04:41:52.903Z,5.97
2022-12-25T04:46:54.803Z,5.95
2022-12-25T04:51:56.861Z,5.93
2022-12-25T04:56:58.936Z,5.96
2022-12-25T05:02:00.850Z,6.00
2022-12-25T05:07:02.811Z,5.99
2022-12-25T05:12:04.968Z,5.97
2022-12-25T05:17:08.143Z,5.92
2022-12-25T05:22:10.003Z,5.85
2022-12-25T05:27:11.768Z,5.78
2022-12-25T05:32:13.576Z,5.74
2022-12-25T05:37:15.650Z,5.69
2022-12-25T05:42:17.662Z,5.65
2022-12-25T05:47:19.477Z,5.62
2022-12-25T05:52:21.382Z,5.57
2022-12-25T05:57:23.256Z,5.53
2022-12-25T06:02:26.579Z,5.50
2022-12-25T06:07:28.842Z,5.49
2022-12-25T06:12:30.728Z,5.46
2022-12-25T06:17:33.043Z,5.42
2022-12-25T06:22:35.357Z,5.40
2022-12-25T06:27:37.281Z,5.41
2022-12-25T06:32:39.384Z,5.42
2022-12-25T06:37:41.319Z,5.41
2022-12-25T06:42:43.214Z,5.38
2022-12-25T06:47:44.980Z,5.35
2022-12-25T06:52:46.767Z,5.35
2022-12-25T06:57:48.611Z,5.32
2022-12-25T07:02:50.591Z,5.30
2022-12-25T07:07:52.840Z,5.28
2022-12-25T07:12:54.668Z,5.29
2022-12-25T07:17:58.785Z,5.28
2022-12-25T07:23:00.664Z,5.29
2022-12-25T07:28:02.544Z,5.27
2022-12-25T07:33:04.324Z,5.28
2022-12-25T07:38:06.344Z,5.30
2022-12-25T07:43:08.107Z,5.32
2022-12-25T07:48:15.430Z,5.37
2022-12-25T07:53:18.496Z,5.42
2022-12-25T07:58:23.430Z,5.48
2022-12-25T08:03:25.717Z,5.54
2022-12-25T08:08:27.976Z,5.61
2022-12-25T08:13:34.111Z,5.67
2022-12-25T08:18:37.328Z,5.73
2022-12-25T08:23:44.727Z,5.80
2022-12-25T08:28:47.365Z,5.91
2022-12-25T08:33:51.619Z,6.03
2022-12-25T08:39:00.283Z,6.15
2022-12-25T08:44:05.718Z,6.28
2022-12-25T08:49:07.491Z,6.37
2022-12-25T08:54:09.306Z,6.40
2022-12-25T08:59:11.877Z,6.48
2022-12-25T09:04:14.353Z,6.54
2022-12-25T09:09:16.107Z,6.61
2022-12-25T09:14:17.858Z,6.69
2022-12-25T09:19:19.900Z,6.89
2022-12-25T09:24:21.787Z,7.25
2022-12-25T09:29:27.947Z,7.42
2022-12-25T09:34:29.889Z,7.71
2022-12-25T09:39:31.721Z,7.72
2022-12-25T09:44:43.168Z,7.66
2022-12-25T09:50:13.154Z,7.62
2022-12-25T09:55:21.327Z,7.61
2022-12-25T10:00:25.699Z,7.63
2022-12-25T10:11:28.351Z,7.77
2022-12-25T10:16:42.338Z,7.85
2022-12-25T10:21:44.754Z,7.94
2022-12-25T10:26:48.438Z,8.05
2022-12-25T10:31:54.743Z,8.13
2022-12-25T10:36:58.687Z,8.23
2022-12-25T10:42:15.495Z,8.41
2022-12-25T10:47:24.757Z,8.62
2022-12-25T10:52:28.962Z,8.77
2022-12-25T10:57:30.710Z,8.83
2022-12-25T11:02:40.056Z,8.86
2022-12-25T11:07:51.348Z,8.92
2022-12-25T11:12:54.328Z,8.92
2022-12-25T11:17:56.364Z,8.94
2022-12-25T11:22:58.185Z,9.02
2022-12-25T11:28:05.896Z,9.08
2022-12-25T11:33:12.596Z,9.14
2022-12-25T11:38:14.648Z,9.18
2022-12-25T11:43:29.913Z,9.19
2022-12-25T11:48:40.936Z,9.24
2022-12-25T11:53:53.191Z,9.24
2022-12-25T11:59:18.307Z,9.23
2022-12-25T12:04:40.355Z,9.20
2022-12-25T12:10:00.777Z,9.16
2022-12-25T12:15:31.139Z,9.11
2022-12-25T12:20:35.740Z,9.08
2022-12-25T12:25:42.508Z,9.06
2022-12-25T12:30:44.435Z,9.07
2022-12-25T12:35:46.271Z,9.09
2022-12-25T12:40:58.025Z,9.11
2022-12-25T12:46:30.506Z,9.06
2022-12-25T12:51:35.711Z,9.05
2022-12-25T12:56:37.668Z,9.03
2022-12-25T13:02:01.499Z,8.95
2022-12-25T13:07:44.202Z,8.90
2022-12-25T13:12:47.046Z,8.83
2022-12-25T13:17:50.217Z,8.79
2022-12-25T13:22:53.058Z,8.76
2022-12-25T13:27:59.597Z,8.76
2022-12-25T13:33:01.595Z,8.75
2022-12-25T13:38:03.467Z,8.72
2022-12-25T13:43:05.316Z,8.74
2022-12-25T13:48:15.984Z,8.76
2022-12-25T13:53:18.223Z,8.78
2022-12-25T13:58:31.652Z,8.79
2022-12-25T14:03:39.524Z,8.81
2022-12-25T14:08:41.540Z,8.79
2022-12-25T14:13:46.592Z,8.79
2022-12-25T14:19:23.168Z,8.75
2022-12-25T14:24:27.080Z,8.69
2022-12-25T14:29:37.670Z,8.64
2022-12-25T14:34:39.534Z,8.63
2022-12-25T14:39:41.338Z,8.63
2022-12-25T14:44:43.173Z,8.62
2022-12-25T14:49:46.039Z,8.58
2022-12-25T14:54:57.912Z,8.55
2022-12-25T15:00:21.004Z,8.56
2022-12-25T15:05:27.062Z,8.56
2022-12-25T15:10:58.914Z,8.57
2022-12-25T15:16:14.955Z,8.60
2022-12-25T15:21:36.997Z,8.63
2022-12-25T15:26:39.276Z,8.62
2022-12-25T15:31:41.222Z,8.63
2022-12-25T15:36:43.141Z,8.63
2022-12-25T15:42:03.530Z,8.65
2022-12-25T15:47:05.405Z,8.66
2022-12-25T15:52:13.193Z,8.68
2022-12-25T15:57:21.417Z,8.77
2022-12-25T16:02:23.292Z,8.82
2022-12-25T16:07:25.923Z,8.86
2022-12-25T16:12:27.690Z,8.86
2022-12-25T16:17:29.440Z,8.86
2022-12-25T16:22:33.098Z,8.86
2022-12-25T16:27:34.883Z,8.90
2022-12-25T16:32:36.997Z,8.93
2022-12-25T16:37:39.499Z,8.98
2022-12-25T16:42:41.357Z,8.98
2022-12-25T16:47:43.165Z,9.00
2022-12-25T16:52:44.960Z,9.04
2022-12-25T16:57:50.994Z,9.04
2022-12-25T17:02:53.390Z,9.02
2022-12-25T17:07:55.347Z,9.00
2022-12-25T17:12:57.108Z,8.95
2022-12-25T17:17:58.965Z,8.91
2022-12-25T17:23:00.855Z,8.87
2022-12-25T17:28:02.692Z,8.86
2022-12-25T17:33:04.484Z,8.88
2022-12-25T17:38:06.460Z,8.91
2022-12-25T17:43:08.301Z,8.92
2022-12-25T17:48:10.059Z,8.93
2022-12-25T17:53:12.080Z,8.97
2022-12-25T17:58:13.855Z,8.96
2022-12-25T18:03:15.721Z,8.96
2022-12-25T18:08:17.612Z,8.99
2022-12-25T18:13:19.433Z,8.99
2022-12-25T18:18:21.226Z,9.01
2022-12-25T18:23:23.402Z,9.04
2022-12-25T18:28:25.124Z,9.06
2022-12-25T18:33:27.473Z,9.09
2022-12-25T18:38:29.404Z,9.12
2022-12-25T18:43:53.333Z,9.18
2022-12-25T18:48:56.598Z,9.31
2022-12-25T18:53:58.532Z,9.46
2022-12-25T18:59:00.757Z,9.59
2022-12-25T19:04:05.399Z,9.71
2022-12-25T19:09:11.170Z,9.82
2022-12-25T19:14:13.019Z,9.92
2022-12-25T19:19:15.321Z,9.97
2022-12-25T19:24:17.102Z,10.03
2022-12-25T19:29:19.253Z,10.10
2022-12-25T19:34:21.265Z,10.16
2022-12-25T19:39:23.153Z,10.17
2022-12-25T19:44:25.065Z,10.16
2022-12-25T19:49:27.159Z,10.17
2022-12-25T19:54:29.596Z,10.17
2022-12-25T19:59:31.390Z,10.17
2022-12-25T20:04:33.207Z,10.19
2022-12-25T20:09:35.061Z,10.22
2022-12-25T20:14:36.935Z,10.24
2022-12-25T20:19:38.971Z,10.25
2022-12-25T20:24:40.797Z,10.30
2022-12-25T20:29:42.793Z,10.31
2022-12-25T20:34:44.764Z,10.32
2022-12-25T20:39:46.691Z,10.34
2022-12-25T20:44:48.549Z,10.36
2022-12-25T20:49:51.631Z,10.40
2022-12-25T20:54:53.421Z,10.41
2022-12-25T20:59:55.151Z,10.41
2022-12-25T21:04:56.980Z,10.38
2022-12-25T21:09:59.421Z,10.40
2022-12-25T21:15:01.516Z,10.39
2022-12-25T21:20:03.632Z,10.39
2022-12-25T21:25:05.806Z,10.42
2022-12-25T21:30:14.942Z,10.42
2022-12-25T21:35:18.070Z,10.42
2022-12-25T21:40:20.110Z,10.41
2022-12-25T21:45:21.871Z,10.40
2022-12-25T21:50:42.407Z,10.38
2022-12-25T21:55:55.934Z,10.39
2022-12-25T22:01:03.464Z,10.42
2022-12-25T22:06:24.421Z,10.43
2022-12-25T22:11:45.249Z,10.45
2022-12-25T22:17:05.558Z,10.48
2022-12-25T22:22:07.294Z,10.52
2022-12-25T22:27:09.183Z,10.59
2022-12-25T22:32:12.512Z,10.64
2022-12-25T22:37:17.275Z,10.71
2022-12-25T22:42:19.706Z,10.79
2022-12-25T22:47:22.603Z,10.86
2022-12-25T22:52:24.987Z,10.91
2022-12-25T22:57:26.772Z,10.93
2022-12-25T23:02:28.907Z,10.94
2022-12-25T23:07:30.937Z,10.98
2022-12-25T23:12:51.491Z,11.03
2022-12-25T23:18:11.753Z,11.06
2022-12-25T23:23:34.821Z,11.08
2022-12-25T23:28:57.598Z,11.08
2022-12-25T23:33:59.997Z,11.09
2022-12-25T23:39:09.171Z,11.09
2022-12-25T23:44:13.475Z,11.09
2022-12-25T23:49:15.365Z,11.07
2022-12-25T23:54:22.348Z,11.06
2022-12-25T23:59:26.388Z,11.08
